Perrysburg, Ohio
Current Conditions -  °F | °C
As of 8:53 PM on Saturday 20 Dec 2014 (Local Time) from KTDZ Reporting Station
Overcast Overcast  
Wind Chill: 26°   Ceiling: 2500
Heat Index: 31°   Visibility: 8mi
Dew Point: 23°   Wind: 5mph
Humidity: 72%   Direction: 180°S
Pressure: 30.3"   Gusts: NA
Location:  41.56°N, 83.63°W
Report Text: KTDZ 210153Z AUTO 18004KT 8SM OVC025 M01/M05 A3030 RMK AO2 SLP268 T10061050 TSNO
Loading
Personal Weather Stations






























Interactive Weather Map New forecast layout! Learn more

10-Day Weather Forecast

Advertisements
Track Severe Weather on mobile